sensor_id;sensor_type;location;lat;lon;timestamp;temperature;humidity
25949;DHT22;13961;51.178;4.448;2023-01-24T00:01:04;4.00;99.90
25949;DHT22;13961;51.178;4.448;2023-01-24T00:03:30;3.90;99.90
25949;DHT22;13961;51.178;4.448;2023-01-24T00:05:55;4.00;99.90
25949;DHT22;13961;51.178;4.448;2023-01-24T00:08:21;3.90;99.90
25949;DHT22;13961;51.178;4.448;2023-01-24T00:11:01;4.10;99.90
25949;DHT22;13961;51.178;4.448;2023-01-24T00:13:28;4.10;99.90
25949;DHT22;13961;51.178;4.448;2023-01-24T00:18:39;4.00;99.90
25949;DHT22;13961;51.178;4.448;2023-01-24T00:21:08;3.80;99.90
25949;DHT22;13961;51.178;4.448;2023-01-24T00:23:35;3.90;99.90
25949;DHT22;13961;51.178;4.448;2023-01-24T00:26:03;4.10;99.90
25949;DHT22;13961;51.178;4.448;2023-01-24T00:28:29;4.00;99.90
25949;DHT22;13961;51.178;4.448;2023-01-24T00:30:55;4.30;99.90
25949;DHT22;13961;51.178;4.448;2023-01-24T00:33:22;4.40;99.90
25949;DHT22;13961;51.178;4.448;2023-01-24T00:35:50;4.10;99.90
25949;DHT22;13961;51.178;4.448;2023-01-24T00:38:17;4.10;99.90
25949;DHT22;13961;51.178;4.448;2023-01-24T00:40:42;3.90;99.90
25949;DHT22;13961;51.178;4.448;2023-01-24T00:43:09;4.40;99.90
25949;DHT22;13961;51.178;4.448;2023-01-24T00:45:36;4.60;99.90
25949;DHT22;13961;51.178;4.448;2023-01-24T00:48:03;4.50;99.90
25949;DHT22;13961;51.178;4.448;2023-01-24T00:50:31;4.00;99.90
25949;DHT22;13961;51.178;4.448;2023-01-24T00:52:57;4.10;99.90
25949;DHT22;13961;51.178;4.448;2023-01-24T00:55:23;4.30;99.90
25949;DHT22;13961;51.178;4.448;2023-01-24T00:57:50;4.40;99.90
25949;DHT22;13961;51.178;4.448;2023-01-24T01:00:16;4.50;99.90
25949;DHT22;13961;51.178;4.448;2023-01-24T01:02:42;4.30;99.90
25949;DHT22;13961;51.178;4.448;2023-01-24T01:05:09;4.40;99.90
25949;DHT22;13961;51.178;4.448;2023-01-24T01:07:35;4.40;99.90
25949;DHT22;13961;51.178;4.448;2023-01-24T01:10:02;4.30;99.90
25949;DHT22;13961;51.178;4.448;2023-01-24T01:12:27;4.00;99.90
25949;DHT22;13961;51.178;4.448;2023-01-24T01:14:53;3.90;99.90
25949;DHT22;13961;51.178;4.448;2023-01-24T01:17:19;4.00;99.90
25949;DHT22;13961;51.178;4.448;2023-01-24T01:19:44;4.10;99.90
25949;DHT22;13961;51.178;4.448;2023-01-24T01:22:10;4.10;99.90
25949;DHT22;13961;51.178;4.448;2023-01-24T01:24:37;4.10;99.90
25949;DHT22;13961;51.178;4.448;2023-01-24T01:27:03;4.30;99.90
25949;DHT22;13961;51.178;4.448;2023-01-24T01:29:28;4.20;99.90
25949;DHT22;13961;51.178;4.448;2023-01-24T01:31:54;4.20;99.90
25949;DHT22;13961;51.178;4.448;2023-01-24T01:34:20;4.10;99.90
25949;DHT22;13961;51.178;4.448;2023-01-24T01:36:45;4.30;99.90
25949;DHT22;13961;51.178;4.448;2023-01-24T01:39:13;4.10;99.90
25949;DHT22;13961;51.178;4.448;2023-01-24T01:41:39;4.10;99.90
25949;DHT22;13961;51.178;4.448;2023-01-24T01:44:28;3.80;99.90
25949;DHT22;13961;51.178;4.448;2023-01-24T01:50:04;3.80;99.90
25949;DHT22;13961;51.178;4.448;2023-01-24T01:52:37;3.80;99.90
25949;DHT22;13961;51.178;4.448;2023-01-24T01:55:10;3.90;99.90
25949;DHT22;13961;51.178;4.448;2023-01-24T01:57:37;4.00;99.90
25949;DHT22;13961;51.178;4.448;2023-01-24T02:02:42;3.70;99.90
25949;DHT22;13961;51.178;4.448;2023-01-24T02:05:12;3.80;99.90
25949;DHT22;13961;51.178;4.448;2023-01-24T02:07:54;3.70;99.90
25949;DHT22;13961;51.178;4.448;2023-01-24T02:10:23;3.50;99.90
25949;DHT22;13961;51.178;4.448;2023-01-24T02:12:53;3.40;99.90
25949;DHT22;13961;51.178;4.448;2023-01-24T02:15:22;3.60;99.90
25949;DHT22;13961;51.178;4.448;2023-01-24T02:18:08;3.80;99.90
25949;DHT22;13961;51.178;4.448;2023-01-24T02:20:43;4.00;99.90
25949;DHT22;13961;51.178;4.448;2023-01-24T02:28:33;3.60;99.90
25949;DHT22;13961;51.178;4.448;2023-01-24T02:31:00;3.60;99.90
25949;DHT22;13961;51.178;4.448;2023-01-24T02:33:27;3.50;99.90
25949;DHT22;13961;51.178;4.448;2023-01-24T02:36:30;3.60;99.90
25949;DHT22;13961;51.178;4.448;2023-01-24T02:39:04;3.80;99.90
25949;DHT22;13961;51.178;4.448;2023-01-24T02:41:42;4.00;99.90
25949;DHT22;13961;51.178;4.448;2023-01-24T02:44:11;3.60;99.90
25949;DHT22;13961;51.178;4.448;2023-01-24T02:46:39;3.70;99.90
25949;DHT22;13961;51.178;4.448;2023-01-24T02:49:08;3.70;99.90
25949;DHT22;13961;51.178;4.448;2023-01-24T02:51:34;3.80;99.90
25949;DHT22;13961;51.178;4.448;2023-01-24T02:54:19;3.80;99.90
25949;DHT22;13961;51.178;4.448;2023-01-24T02:56:44;3.60;99.90
25949;DHT22;13961;51.178;4.448;2023-01-24T02:59:28;3.60;99.90
25949;DHT22;13961;51.178;4.448;2023-01-24T03:01:56;3.60;99.90
25949;DHT22;13961;51.178;4.448;2023-01-24T03:04:22;3.60;99.90
25949;DHT22;13961;51.178;4.448;2023-01-24T03:06:48;3.80;99.90
25949;DHT22;13961;51.178;4.448;2023-01-24T03:09:16;3.80;99.90
25949;DHT22;13961;51.178;4.448;2023-01-24T03:11:48;3.90;99.90
25949;DHT22;13961;51.178;4.448;2023-01-24T03:14:15;3.80;99.90
25949;DHT22;13961;51.178;4.448;2023-01-24T03:16:59;4.00;99.90
25949;DHT22;13961;51.178;4.448;2023-01-24T03:19:44;3.80;99.90
25949;DHT22;13961;51.178;4.448;2023-01-24T03:22:30;3.90;99.90
25949;DHT22;13961;51.178;4.448;2023-01-24T03:25:16;3.80;99.90
25949;DHT22;13961;51.178;4.448;2023-01-24T03:28:05;3.80;99.90
25949;DHT22;13961;51.178;4.448;2023-01-24T03:30:49;3.50;99.90
25949;DHT22;13961;51.178;4.448;2023-01-24T03:33:34;3.80;99.90
25949;DHT22;13961;51.178;4.448;2023-01-24T03:36:18;3.70;99.90
25949;DHT22;13961;51.178;4.448;2023-01-24T03:38:57;3.80;99.90
25949;DHT22;13961;51.178;4.448;2023-01-24T03:41:41;3.60;99.90
25949;DHT22;13961;51.178;4.448;2023-01-24T03:44:07;3.90;99.90
25949;DHT22;13961;51.178;4.448;2023-01-24T03:46:33;3.70;99.90
25949;DHT22;13961;51.178;4.448;2023-01-24T03:48:58;3.50;99.90
25949;DHT22;13961;51.178;4.448;2023-01-24T03:51:25;3.50;99.90
25949;DHT22;13961;51.178;4.448;2023-01-24T03:54:09;3.80;99.90
25949;DHT22;13961;51.178;4.448;2023-01-24T03:56:35;3.80;99.90
25949;DHT22;13961;51.178;4.448;2023-01-24T03:59:00;4.20;99.90
25949;DHT22;13961;51.178;4.448;2023-01-24T04:01:27;3.80;99.90
25949;DHT22;13961;51.178;4.448;2023-01-24T04:03:55;4.00;99.90
25949;DHT22;13961;51.178;4.448;2023-01-24T04:06:22;3.80;99.90
25949;DHT22;13961;51.178;4.448;2023-01-24T04:08:48;3.80;99.90
25949;DHT22;13961;51.178;4.448;2023-01-24T04:11:15;3.60;99.90
25949;DHT22;13961;51.178;4.448;2023-01-24T04:13:40;3.70;99.90
25949;DHT22;13961;51.178;4.448;2023-01-24T04:16:07;3.60;99.90
25949;DHT22;13961;51.178;4.448;2023-01-24T04:18:33;3.80;99.90
25949;DHT22;13961;51.178;4.448;2023-01-24T04:21:05;3.70;99.90
25949;DHT22;13961;51.178;4.448;2023-01-24T04:23:30;3.90;99.90
25949;DHT22;13961;51.178;4.448;2023-01-24T04:25:57;3.70;99.90
25949;DHT22;13961;51.178;4.448;2023-01-24T04:28:27;3.90;99.90
25949;DHT22;13961;51.178;4.448;2023-01-24T04:30:57;3.90;99.90
25949;DHT22;13961;51.178;4.448;2023-01-24T04:33:23;3.90;99.90
25949;DHT22;13961;51.178;4.448;2023-01-24T04:35:48;3.90;99.90
25949;DHT22;13961;51.178;4.448;2023-01-24T04:38:14;3.40;99.90
25949;DHT22;13961;51.178;4.448;2023-01-24T04:40:39;3.70;99.90
25949;DHT22;13961;51.178;4.448;2023-01-24T04:43:06;3.30;99.90
25949;DHT22;13961;51.178;4.448;2023-01-24T04:45:31;3.60;99.90
25949;DHT22;13961;51.178;4.448;2023-01-24T04:47:58;3.40;99.90
25949;DHT22;13961;51.178;4.448;2023-01-24T04:50:25;3.30;99.90
25949;DHT22;13961;51.178;4.448;2023-01-24T04:52:51;3.40;99.90
25949;DHT22;13961;51.178;4.448;2023-01-24T04:55:17;3.40;99.90
25949;DHT22;13961;51.178;4.448;2023-01-24T04:57:42;3.80;99.90
25949;DHT22;13961;51.178;4.448;2023-01-24T05:00:09;3.70;99.90
25949;DHT22;13961;51.178;4.448;2023-01-24T05:02:35;3.90;99.90
25949;DHT22;13961;51.178;4.448;2023-01-24T05:05:04;4.20;99.90
25949;DHT22;13961;51.178;4.448;2023-01-24T05:07:31;4.20;99.90
25949;DHT22;13961;51.178;4.448;2023-01-24T05:09:56;4.40;99.90
25949;DHT22;13961;51.178;4.448;2023-01-24T05:12:23;4.30;99.90
25949;DHT22;13961;51.178;4.448;2023-01-24T05:14:50;3.80;99.90
25949;DHT22;13961;51.178;4.448;2023-01-24T05:17:15;3.60;99.90
25949;DHT22;13961;51.178;4.448;2023-01-24T05:19:41;3.60;99.90
25949;DHT22;13961;51.178;4.448;2023-01-24T05:22:06;3.90;99.90
25949;DHT22;13961;51.178;4.448;2023-01-24T05:24:32;4.00;99.90
25949;DHT22;13961;51.178;4.448;2023-01-24T05:26:58;3.70;99.90
25949;DHT22;13961;51.178;4.448;2023-01-24T05:29:23;3.80;99.90
25949;DHT22;13961;51.178;4.448;2023-01-24T05:31:49;3.70;99.90
25949;DHT22;13961;51.178;4.448;2023-01-24T05:34:15;3.50;99.90
25949;DHT22;13961;51.178;4.448;2023-01-24T05:36:40;3.40;99.90
25949;DHT22;13961;51.178;4.448;2023-01-24T05:39:06;3.50;99.90
25949;DHT22;13961;51.178;4.448;2023-01-24T05:41:32;3.70;99.90
25949;DHT22;13961;51.178;4.448;2023-01-24T05:43:57;3.60;99.90
25949;DHT22;13961;51.178;4.448;2023-01-24T05:46:23;3.60;99.90
25949;DHT22;13961;51.178;4.448;2023-01-24T05:48:49;3.60;99.90
25949;DHT22;13961;51.178;4.448;2023-01-24T05:51:17;3.50;99.90
25949;DHT22;13961;51.178;4.448;2023-01-24T05:53:43;3.70;99.90
25949;DHT22;13961;51.178;4.448;2023-01-24T05:56:15;3.40;99.90
25949;DHT22;13961;51.178;4.448;2023-01-24T05:58:42;3.50;99.90
25949;DHT22;13961;51.178;4.448;2023-01-24T06:01:17;3.50;99.90
25949;DHT22;13961;51.178;4.448;2023-01-24T06:03:44;3.60;99.90
25949;DHT22;13961;51.178;4.448;2023-01-24T06:06:12;3.40;99.90
25949;DHT22;13961;51.178;4.448;2023-01-24T06:08:38;3.70;99.90
25949;DHT22;13961;51.178;4.448;2023-01-24T06:11:07;4.00;99.90
25949;DHT22;13961;51.178;4.448;2023-01-24T06:13:34;4.00;99.90
25949;DHT22;13961;51.178;4.448;2023-01-24T06:16:01;3.80;99.90
25949;DHT22;13961;51.178;4.448;2023-01-24T06:18:27;3.90;99.90
25949;DHT22;13961;51.178;4.448;2023-01-24T06:20:53;3.80;99.90
25949;DHT22;13961;51.178;4.448;2023-01-24T06:23:26;3.70;99.90
25949;DHT22;13961;51.178;4.448;2023-01-24T06:25:53;3.80;99.90
25949;DHT22;13961;51.178;4.448;2023-01-24T06:28:19;3.90;99.90
25949;DHT22;13961;51.178;4.448;2023-01-24T06:34:00;3.90;99.90
25949;DHT22;13961;51.178;4.448;2023-01-24T06:38:56;4.20;99.90
25949;DHT22;13961;51.178;4.448;2023-01-24T06:41:24;3.80;99.90
25949;DHT22;13961;51.178;4.448;2023-01-24T06:43:50;3.80;99.90
25949;DHT22;13961;51.178;4.448;2023-01-24T06:46:15;3.90;99.90
25949;DHT22;13961;51.178;4.448;2023-01-24T06:48:44;4.20;99.90
25949;DHT22;13961;51.178;4.448;2023-01-24T06:51:13;4.00;99.90
25949;DHT22;13961;51.178;4.448;2023-01-24T06:53:42;3.90;99.90
25949;DHT22;13961;51.178;4.448;2023-01-24T06:56:08;4.00;99.90
25949;DHT22;13961;51.178;4.448;2023-01-24T06:58:36;3.60;99.90
25949;DHT22;13961;51.178;4.448;2023-01-24T07:01:02;3.30;99.90
25949;DHT22;13961;51.178;4.448;2023-01-24T07:03:28;3.60;99.90
25949;DHT22;13961;51.178;4.448;2023-01-24T07:05:53;3.70;99.90
25949;DHT22;13961;51.178;4.448;2023-01-24T07:08:19;3.60;99.90
25949;DHT22;13961;51.178;4.448;2023-01-24T07:10:46;3.70;99.90
25949;DHT22;13961;51.178;4.448;2023-01-24T07:13:12;3.80;99.90
25949;DHT22;13961;51.178;4.448;2023-01-24T07:15:37;3.60;99.90
25949;DHT22;13961;51.178;4.448;2023-01-24T07:18:08;3.70;99.90
25949;DHT22;13961;51.178;4.448;2023-01-24T07:20:34;3.70;99.90
25949;DHT22;13961;51.178;4.448;2023-01-24T07:23:01;3.60;99.90
25949;DHT22;13961;51.178;4.448;2023-01-24T07:25:27;3.50;99.90
25949;DHT22;13961;51.178;4.448;2023-01-24T07:27:53;3.50;99.90
25949;DHT22;13961;51.178;4.448;2023-01-24T07:30:19;3.50;99.90
25949;DHT22;13961;51.178;4.448;2023-01-24T07:32:44;3.40;99.90
25949;DHT22;13961;51.178;4.448;2023-01-24T07:35:10;3.40;99.90
25949;DHT22;13961;51.178;4.448;2023-01-24T07:37:36;3.80;99.90
25949;DHT22;13961;51.178;4.448;2023-01-24T07:40:03;3.40;99.90
25949;DHT22;13961;51.178;4.448;2023-01-24T07:42:29;3.40;99.90
25949;DHT22;13961;51.178;4.448;2023-01-24T07:44:54;3.60;99.90
25949;DHT22;13961;51.178;4.448;2023-01-24T07:47:22;3.70;99.90
25949;DHT22;13961;51.178;4.448;2023-01-24T07:49:48;3.80;99.90
25949;DHT22;13961;51.178;4.448;2023-01-24T07:52:14;3.70;99.90
25949;DHT22;13961;51.178;4.448;2023-01-24T07:54:40;3.80;99.90
25949;DHT22;13961;51.178;4.448;2023-01-24T07:57:05;3.60;99.90
25949;DHT22;13961;51.178;4.448;2023-01-24T07:59:33;3.70;99.90
25949;DHT22;13961;51.178;4.448;2023-01-24T08:01:58;3.20;99.90
25949;DHT22;13961;51.178;4.448;2023-01-24T08:04:25;3.10;99.90
25949;DHT22;13961;51.178;4.448;2023-01-24T08:06:52;3.30;99.90
25949;DHT22;13961;51.178;4.448;2023-01-24T08:09:37;3.70;99.90
25949;DHT22;13961;51.178;4.448;2023-01-24T08:12:02;3.40;99.90
25949;DHT22;13961;51.178;4.448;2023-01-24T08:14:28;3.40;99.90
25949;DHT22;13961;51.178;4.448;2023-01-24T08:16:53;3.40;99.90
25949;DHT22;13961;51.178;4.448;2023-01-24T08:19:19;3.00;99.90
25949;DHT22;13961;51.178;4.448;2023-01-24T08:21:45;3.10;99.90
25949;DHT22;13961;51.178;4.448;2023-01-24T08:24:10;3.60;99.90
25949;DHT22;13961;51.178;4.448;2023-01-24T08:26:36;3.40;99.90
25949;DHT22;13961;51.178;4.448;2023-01-24T08:29:02;3.40;99.90
25949;DHT22;13961;51.178;4.448;2023-01-24T08:31:27;3.70;99.90
25949;DHT22;13961;51.178;4.448;2023-01-24T08:33:54;3.30;99.90
25949;DHT22;13961;51.178;4.448;2023-01-24T08:36:20;3.10;99.90
25949;DHT22;13961;51.178;4.448;2023-01-24T08:38:46;3.40;99.90
25949;DHT22;13961;51.178;4.448;2023-01-24T08:41:11;3.10;99.90
25949;DHT22;13961;51.178;4.448;2023-01-24T08:43:37;3.20;99.90
25949;DHT22;13961;51.178;4.448;2023-01-24T08:46:04;3.50;99.90
25949;DHT22;13961;51.178;4.448;2023-01-24T08:48:30;3.40;99.90
25949;DHT22;13961;51.178;4.448;2023-01-24T08:50:55;3.50;99.90
25949;DHT22;13961;51.178;4.448;2023-01-24T08:53:22;3.60;99.90
25949;DHT22;13961;51.178;4.448;2023-01-24T08:55:48;3.60;99.90
25949;DHT22;13961;51.178;4.448;2023-01-24T08:58:15;3.50;99.90
25949;DHT22;13961;51.178;4.448;2023-01-24T09:00:41;3.90;99.90
25949;DHT22;13961;51.178;4.448;2023-01-24T09:03:09;4.00;99.90
25949;DHT22;13961;51.178;4.448;2023-01-24T09:05:36;3.90;99.90
25949;DHT22;13961;51.178;4.448;2023-01-24T09:08:04;3.70;99.90
25949;DHT22;13961;51.178;4.448;2023-01-24T09:10:30;3.60;99.90
25949;DHT22;13961;51.178;4.448;2023-01-24T09:12:55;3.50;99.90
25949;DHT22;13961;51.178;4.448;2023-01-24T09:15:21;3.60;99.90
25949;DHT22;13961;51.178;4.448;2023-01-24T09:17:46;3.60;99.90
25949;DHT22;13961;51.178;4.448;2023-01-24T09:20:12;3.30;99.90
25949;DHT22;13961;51.178;4.448;2023-01-24T09:22:38;3.30;99.90
25949;DHT22;13961;51.178;4.448;2023-01-24T09:25:06;3.70;99.90
25949;DHT22;13961;51.178;4.448;2023-01-24T09:27:33;3.50;99.90
25949;DHT22;13961;51.178;4.448;2023-01-24T09:29:59;3.40;99.90
25949;DHT22;13961;51.178;4.448;2023-01-24T09:32:25;3.40;99.90
25949;DHT22;13961;51.178;4.448;2023-01-24T09:34:50;3.70;99.90
25949;DHT22;13961;51.178;4.448;2023-01-24T09:37:18;3.70;99.90
25949;DHT22;13961;51.178;4.448;2023-01-24T09:39:43;3.70;99.90
25949;DHT22;13961;51.178;4.448;2023-01-24T09:42:52;4.10;99.90
25949;DHT22;13961;51.178;4.448;2023-01-24T09:45:29;3.70;99.90
25949;DHT22;13961;51.178;4.448;2023-01-24T09:48:11;3.80;99.90
25949;DHT22;13961;51.178;4.448;2023-01-24T09:50:42;3.70;99.90
25949;DHT22;13961;51.178;4.448;2023-01-24T09:53:26;3.60;99.90
25949;DHT22;13961;51.178;4.448;2023-01-24T09:55:53;3.70;99.90
25949;DHT22;13961;51.178;4.448;2023-01-24T09:58:40;3.80;99.90
25949;DHT22;13961;51.178;4.448;2023-01-24T10:01:13;3.80;99.90
25949;DHT22;13961;51.178;4.448;2023-01-24T10:03:40;3.80;99.90
25949;DHT22;13961;51.178;4.448;2023-01-24T10:06:19;3.80;99.90
25949;DHT22;13961;51.178;4.448;2023-01-24T10:14:59;3.80;99.90
25949;DHT22;13961;51.178;4.448;2023-01-24T10:20:24;3.90;99.90
25949;DHT22;13961;51.178;4.448;2023-01-24T10:23:00;3.80;99.90
25949;DHT22;13961;51.178;4.448;2023-01-24T10:25:49;3.80;99.90
25949;DHT22;13961;51.178;4.448;2023-01-24T10:28:23;3.90;99.90
25949;DHT22;13961;51.178;4.448;2023-01-24T10:30:57;3.60;99.90
25949;DHT22;13961;51.178;4.448;2023-01-24T10:33:27;3.70;99.90
25949;DHT22;13961;51.178;4.448;2023-01-24T10:36:37;3.80;99.90
25949;DHT22;13961;51.178;4.448;2023-01-24T10:39:09;3.60;99.90
25949;DHT22;13961;51.178;4.448;2023-01-24T10:41:37;3.50;99.90
25949;DHT22;13961;51.178;4.448;2023-01-24T10:44:28;3.50;99.90
25949;DHT22;13961;51.178;4.448;2023-01-24T10:49:36;3.20;99.90
25949;DHT22;13961;51.178;4.448;2023-01-24T10:52:21;3.50;99.90
25949;DHT22;13961;51.178;4.448;2023-01-24T10:54:51;3.30;99.90
25949;DHT22;13961;51.178;4.448;2023-01-24T10:59:50;3.40;99.90
25949;DHT22;13961;51.178;4.448;2023-01-24T11:02:24;3.60;99.90
25949;DHT22;13961;51.178;4.448;2023-01-24T11:05:12;3.50;99.90
25949;DHT22;13961;51.178;4.448;2023-01-24T11:07:45;3.80;99.90
25949;DHT22;13961;51.178;4.448;2023-01-24T11:10:21;3.80;99.90
25949;DHT22;13961;51.178;4.448;2023-01-24T11:12:58;4.00;99.90
25949;DHT22;13961;51.178;4.448;2023-01-24T11:15:32;3.90;99.90
25949;DHT22;13961;51.178;4.448;2023-01-24T11:18:06;3.60;99.90
25949;DHT22;13961;51.178;4.448;2023-01-24T11:20:34;3.40;99.90
25949;DHT22;13961;51.178;4.448;2023-01-24T11:23:14;3.70;99.90
25949;DHT22;13961;51.178;4.448;2023-01-24T11:25:56;3.70;99.90
25949;DHT22;13961;51.178;4.448;2023-01-24T11:28:28;3.90;99.90
25949;DHT22;13961;51.178;4.448;2023-01-24T11:31:00;4.10;99.90
25949;DHT22;13961;51.178;4.448;2023-01-24T11:34:00;4.10;99.90
25949;DHT22;13961;51.178;4.448;2023-01-24T11:36:47;4.30;99.90
25949;DHT22;13961;51.178;4.448;2023-01-24T11:42:39;4.30;99.90
25949;DHT22;13961;51.178;4.448;2023-01-24T11:48:42;4.00;99.90
25949;DHT22;13961;51.178;4.448;2023-01-24T12:07:42;3.90;99.90
25949;DHT22;13961;51.178;4.448;2023-01-24T12:13:10;4.00;99.90
25949;DHT22;13961;51.178;4.448;2023-01-24T12:21:10;4.10;99.90
25949;DHT22;13961;51.178;4.448;2023-01-24T12:23:48;4.30;99.90
25949;DHT22;13961;51.178;4.448;2023-01-24T12:29:27;4.20;99.90
25949;DHT22;13961;51.178;4.448;2023-01-24T12:39:56;4.20;99.90
25949;DHT22;13961;51.178;4.448;2023-01-24T12:45:19;4.20;99.90
25949;DHT22;13961;51.178;4.448;2023-01-24T12:47:53;4.30;99.90
25949;DHT22;13961;51.178;4.448;2023-01-24T12:50:46;4.00;99.90
25949;DHT22;13961;51.178;4.448;2023-01-24T12:53:27;3.80;99.90
25949;DHT22;13961;51.178;4.448;2023-01-24T12:56:12;3.80;99.90
25949;DHT22;13961;51.178;4.448;2023-01-24T12:58:41;3.80;99.90
25949;DHT22;13961;51.178;4.448;2023-01-24T13:12:03;4.00;99.90
25949;DHT22;13961;51.178;4.448;2023-01-24T13:14:42;3.80;99.90
25949;DHT22;13961;51.178;4.448;2023-01-24T13:25:30;3.80;99.90
25949;DHT22;13961;51.178;4.448;2023-01-24T13:33:12;3.80;99.90
25949;DHT22;13961;51.178;4.448;2023-01-24T13:35:46;4.10;99.90
25949;DHT22;13961;51.178;4.448;2023-01-24T13:38:25;4.10;99.90
25949;DHT22;13961;51.178;4.448;2023-01-24T13:43:58;3.90;99.90
25949;DHT22;13961;51.178;4.448;2023-01-24T13:49:16;4.00;99.90
25949;DHT22;13961;51.178;4.448;2023-01-24T13:51:43;4.30;99.90
25949;DHT22;13961;51.178;4.448;2023-01-24T13:59:42;3.90;99.90
25949;DHT22;13961;51.178;4.448;2023-01-24T14:02:29;3.50;99.90
25949;DHT22;13961;51.178;4.448;2023-01-24T14:04:55;3.40;99.90
25949;DHT22;13961;51.178;4.448;2023-01-24T14:07:39;3.70;99.90
25949;DHT22;13961;51.178;4.448;2023-01-24T14:10:06;3.60;99.90
25949;DHT22;13961;51.178;4.448;2023-01-24T14:12:39;3.50;99.90
25949;DHT22;13961;51.178;4.448;2023-01-24T14:22:52;3.90;99.90
25949;DHT22;13961;51.178;4.448;2023-01-24T14:25:53;4.10;99.90
25949;DHT22;13961;51.178;4.448;2023-01-24T14:28:32;3.80;99.90
25949;DHT22;13961;51.178;4.448;2023-01-24T14:33:56;3.70;99.90
25949;DHT22;13961;51.178;4.448;2023-01-24T14:39:20;3.80;99.90
25949;DHT22;13961;51.178;4.448;2023-01-24T14:44:31;4.00;99.90
25949;DHT22;13961;51.178;4.448;2023-01-24T14:47:18;4.00;99.90
25949;DHT22;13961;51.178;4.448;2023-01-24T14:49:54;3.80;99.90
25949;DHT22;13961;51.178;4.448;2023-01-24T14:52:24;3.60;99.90
25949;DHT22;13961;51.178;4.448;2023-01-24T14:57:23;3.50;99.90
25949;DHT22;13961;51.178;4.448;2023-01-24T15:02:49;3.40;99.90
25949;DHT22;13961;51.178;4.448;2023-01-24T15:05:34;3.70;99.90
25949;DHT22;13961;51.178;4.448;2023-01-24T15:08:03;3.60;99.90
25949;DHT22;13961;51.178;4.448;2023-01-24T15:10:35;3.70;99.90
25949;DHT22;13961;51.178;4.448;2023-01-24T15:13:06;3.70;99.90
25949;DHT22;13961;51.178;4.448;2023-01-24T15:15:32;3.50;99.90
25949;DHT22;13961;51.178;4.448;2023-01-24T15:18:04;3.80;99.90
25949;DHT22;13961;51.178;4.448;2023-01-24T15:20:31;3.80;99.90
25949;DHT22;13961;51.178;4.448;2023-01-24T15:22:59;4.20;99.90
25949;DHT22;13961;51.178;4.448;2023-01-24T15:25:30;4.10;99.90
25949;DHT22;13961;51.178;4.448;2023-01-24T15:28:08;4.20;99.90
25949;DHT22;13961;51.178;4.448;2023-01-24T15:30:35;4.10;99.90
25949;DHT22;13961;51.178;4.448;2023-01-24T15:33:02;4.00;99.90
25949;DHT22;13961;51.178;4.448;2023-01-24T15:35:38;3.70;99.90
25949;DHT22;13961;51.178;4.448;2023-01-24T15:43:39;4.30;99.90
25949;DHT22;13961;51.178;4.448;2023-01-24T15:46:36;4.30;99.90
25949;DHT22;13961;51.178;4.448;2023-01-24T15:49:57;4.30;99.90
25949;DHT22;13961;51.178;4.448;2023-01-24T15:52:23;3.70;99.90
25949;DHT22;13961;51.178;4.448;2023-01-24T15:54:57;3.70;99.90
25949;DHT22;13961;51.178;4.448;2023-01-24T15:57:29;3.80;99.90
25949;DHT22;13961;51.178;4.448;2023-01-24T16:02:23;4.00;99.90
25949;DHT22;13961;51.178;4.448;2023-01-24T16:04:49;3.90;99.90
25949;DHT22;13961;51.178;4.448;2023-01-24T16:07:16;3.90;99.90
25949;DHT22;13961;51.178;4.448;2023-01-24T16:09:46;3.90;99.90
25949;DHT22;13961;51.178;4.448;2023-01-24T16:12:19;3.60;99.90
25949;DHT22;13961;51.178;4.448;2023-01-24T16:14:51;3.70;99.90
25949;DHT22;13961;51.178;4.448;2023-01-24T16:17:25;4.00;99.90
25949;DHT22;13961;51.178;4.448;2023-01-24T16:19:52;4.10;99.90
25949;DHT22;13961;51.178;4.448;2023-01-24T16:22:17;3.60;99.90
25949;DHT22;13961;51.178;4.448;2023-01-24T16:24:43;3.40;99.90
25949;DHT22;13961;51.178;4.448;2023-01-24T16:27:13;3.30;99.90
25949;DHT22;13961;51.178;4.448;2023-01-24T16:29:40;3.40;99.90
25949;DHT22;13961;51.178;4.448;2023-01-24T16:32:22;3.80;99.90
25949;DHT22;13961;51.178;4.448;2023-01-24T16:34:53;3.50;99.90
25949;DHT22;13961;51.178;4.448;2023-01-24T16:37:19;3.80;99.90
25949;DHT22;13961;51.178;4.448;2023-01-24T16:39:45;3.70;99.90
25949;DHT22;13961;51.178;4.448;2023-01-24T16:42:15;3.60;99.90
25949;DHT22;13961;51.178;4.448;2023-01-24T16:44:40;3.50;99.90
25949;DHT22;13961;51.178;4.448;2023-01-24T16:47:06;3.90;99.90
25949;DHT22;13961;51.178;4.448;2023-01-24T16:49:32;3.80;99.90
25949;DHT22;13961;51.178;4.448;2023-01-24T16:51:57;3.90;99.90
25949;DHT22;13961;51.178;4.448;2023-01-24T16:54:23;3.50;99.90
25949;DHT22;13961;51.178;4.448;2023-01-24T16:56:50;3.70;99.90
25949;DHT22;13961;51.178;4.448;2023-01-24T16:59:15;3.60;99.90
25949;DHT22;13961;51.178;4.448;2023-01-24T17:01:41;3.70;99.90
25949;DHT22;13961;51.178;4.448;2023-01-24T17:04:07;3.50;99.90
25949;DHT22;13961;51.178;4.448;2023-01-24T17:06:33;3.30;99.90
25949;DHT22;13961;51.178;4.448;2023-01-24T17:08:58;3.40;99.90
25949;DHT22;13961;51.178;4.448;2023-01-24T17:11:24;3.20;99.90
25949;DHT22;13961;51.178;4.448;2023-01-24T17:13:50;2.90;99.90
25949;DHT22;13961;51.178;4.448;2023-01-24T17:16:16;2.90;99.90
25949;DHT22;13961;51.178;4.448;2023-01-24T17:18:42;3.10;99.90
25949;DHT22;13961;51.178;4.448;2023-01-24T17:21:13;3.40;99.90
25949;DHT22;13961;51.178;4.448;2023-01-24T17:23:39;3.80;99.90
25949;DHT22;13961;51.178;4.448;2023-01-24T17:26:14;3.50;99.90
25949;DHT22;13961;51.178;4.448;2023-01-24T17:28:41;3.30;99.90
25949;DHT22;13961;51.178;4.448;2023-01-24T17:31:15;3.30;99.90
25949;DHT22;13961;51.178;4.448;2023-01-24T17:33:42;3.10;99.90
25949;DHT22;13961;51.178;4.448;2023-01-24T17:36:09;3.30;99.90
25949;DHT22;13961;51.178;4.448;2023-01-24T17:38:37;3.10;99.90
25949;DHT22;13961;51.178;4.448;2023-01-24T17:41:03;3.00;99.90
25949;DHT22;13961;51.178;4.448;2023-01-24T17:43:29;2.90;99.90
25949;DHT22;13961;51.178;4.448;2023-01-24T17:45:59;2.80;99.90
25949;DHT22;13961;51.178;4.448;2023-01-24T17:48:25;2.80;99.90
25949;DHT22;13961;51.178;4.448;2023-01-24T17:50:52;2.90;99.90
25949;DHT22;13961;51.178;4.448;2023-01-24T17:53:18;2.90;99.90
25949;DHT22;13961;51.178;4.448;2023-01-24T17:55:45;3.00;99.90
25949;DHT22;13961;51.178;4.448;2023-01-24T17:58:12;3.10;99.90
25949;DHT22;13961;51.178;4.448;2023-01-24T18:00:38;3.10;99.90
25949;DHT22;13961;51.178;4.448;2023-01-24T18:03:04;3.50;99.90
25949;DHT22;13961;51.178;4.448;2023-01-24T18:05:32;3.30;99.90
25949;DHT22;13961;51.178;4.448;2023-01-24T18:07:58;3.10;99.90
25949;DHT22;13961;51.178;4.448;2023-01-24T18:10:23;3.30;99.90
25949;DHT22;13961;51.178;4.448;2023-01-24T18:12:49;3.30;99.90
25949;DHT22;13961;51.178;4.448;2023-01-24T18:15:15;3.00;99.90
25949;DHT22;13961;51.178;4.448;2023-01-24T18:17:40;3.00;99.90
25949;DHT22;13961;51.178;4.448;2023-01-24T18:20:06;3.00;99.90
25949;DHT22;13961;51.178;4.448;2023-01-24T18:22:34;2.90;99.90
25949;DHT22;13961;51.178;4.448;2023-01-24T18:25:04;3.10;99.90
25949;DHT22;13961;51.178;4.448;2023-01-24T18:27:30;3.20;99.90